createdAt,value
2022-10-11T00:01:01.185Z,18.95
2022-10-11T00:03:37.060Z,21.55
2022-10-11T00:06:09.318Z,14.23
2022-10-11T00:08:38.171Z,18.17
2022-10-11T00:11:07.819Z,23.02
2022-10-11T00:13:36.014Z,20.75
2022-10-11T00:16:15.588Z,19.77
2022-10-11T00:18:51.459Z,22.70
2022-10-11T00:21:30.688Z,15.82
2022-10-11T00:24:11.842Z,18.33
2022-10-11T00:26:53.152Z,20.17
2022-10-11T00:29:30.948Z,18.23
2022-10-11T00:32:08.706Z,18.15
2022-10-11T00:34:46.823Z,19.10
2022-10-11T00:37:23.566Z,18.17
2022-10-11T00:40:00.376Z,14.38
2022-10-11T00:42:38.871Z,17.45
2022-10-11T00:45:31.173Z,11.60
2022-10-11T00:48:22.649Z,15.40
2022-10-11T00:51:03.056Z,17.65
2022-10-11T00:53:43.956Z,14.68
2022-10-11T00:56:26.200Z,16.02
2022-10-11T00:59:20.536Z,16.73
2022-10-11T01:01:58.364Z,13.57
2022-10-11T01:04:36.560Z,11.88
2022-10-11T01:07:15.461Z,14.93
2022-10-11T01:09:51.689Z,13.50
2022-10-11T01:12:31.063Z,11.68
2022-10-11T01:15:24.465Z,15.30
2022-10-11T01:18:24.995Z,14.23
2022-10-11T01:21:14.380Z,15.95
2022-10-11T01:24:08.769Z,12.95
2022-10-11T01:27:13.095Z,11.40
2022-10-11T01:30:16.933Z,14.48
2022-10-11T01:33:20.198Z,17.27
2022-10-11T01:35:56.635Z,18.60
2022-10-11T01:39:09.690Z,14.77
2022-10-11T01:41:51.781Z,14.50
2022-10-11T01:44:32.309Z,15.68
2022-10-11T01:47:10.352Z,12.48
2022-10-11T01:49:59.982Z,10.35
2022-10-11T01:52:43.243Z,11.82
2022-10-11T01:55:51.166Z,15.02
2022-10-11T01:58:47.358Z,15.15
2022-10-11T02:01:55.108Z,13.55
2022-10-11T02:04:36.171Z,11.32
2022-10-11T02:07:45.608Z,12.43
2022-10-11T02:10:46.200Z,13.55
2022-10-11T02:13:32.976Z,16.60
2022-10-11T02:16:14.564Z,13.05
2022-10-11T02:18:54.724Z,10.63
2022-10-11T02:21:36.370Z,12.82
2022-10-11T02:24:21.796Z,9.55
2022-10-11T02:27:01.287Z,12.05
2022-10-11T02:29:42.498Z,10.65
2022-10-11T02:32:24.051Z,11.88
2022-10-11T02:35:03.070Z,11.23
2022-10-11T02:37:53.011Z,15.70
2022-10-11T02:40:35.419Z,11.27
2022-10-11T02:43:24.183Z,9.68
2022-10-11T02:46:04.239Z,12.15
2022-10-11T02:48:44.279Z,14.73
2022-10-11T02:51:22.173Z,10.40
2022-10-11T02:53:58.609Z,12.57
2022-10-11T02:56:36.398Z,13.52
2022-10-11T02:59:14.591Z,10.00
2022-10-11T03:01:55.371Z,10.75
2022-10-11T03:04:34.669Z,9.43
2022-10-11T03:07:11.614Z,9.50
2022-10-11T03:09:48.297Z,12.10
2022-10-11T03:12:25.741Z,12.40
2022-10-11T03:15:02.516Z,10.48
2022-10-11T03:17:39.056Z,9.63
2022-10-11T03:20:17.036Z,10.20
2022-10-11T03:22:58.416Z,8.05
2022-10-11T03:25:36.793Z,14.32
2022-10-11T03:28:14.906Z,9.85
2022-10-11T03:30:53.195Z,11.70
2022-10-11T03:33:31.222Z,11.43
2022-10-11T03:36:09.576Z,13.90
2022-10-11T03:38:46.340Z,9.27
2022-10-11T03:41:23.526Z,10.82
2022-10-11T03:44:00.752Z,11.23
2022-10-11T03:46:41.555Z,12.95
2022-10-11T03:49:20.428Z,13.45
2022-10-11T03:51:58.588Z,9.07
2022-10-11T03:54:36.819Z,10.00
2022-10-11T03:57:15.981Z,9.68
2022-10-11T03:59:57.869Z,7.10
2022-10-11T04:02:39.095Z,9.02
2022-10-11T04:05:17.134Z,9.30
2022-10-11T04:07:54.512Z,9.45
2022-10-11T04:10:32.603Z,14.38
2022-10-11T04:13:12.428Z,9.15
2022-10-11T04:15:50.356Z,12.20
2022-10-11T04:18:28.492Z,14.13
2022-10-11T04:21:08.980Z,9.60
2022-10-11T04:23:45.263Z,11.98
2022-10-11T04:26:21.796Z,13.05
2022-10-11T04:28:59.916Z,15.82
2022-10-11T04:31:36.767Z,13.02
2022-10-11T04:34:16.979Z,14.35
2022-10-11T04:36:54.357Z,14.18
2022-10-11T04:39:31.193Z,13.00
2022-10-11T04:42:09.526Z,14.55
2022-10-11T04:44:49.630Z,13.75
2022-10-11T04:47:29.009Z,9.45
2022-10-11T04:50:07.342Z,15.00
2022-10-11T04:52:45.152Z,9.10
2022-10-11T04:55:24.269Z,15.20
2022-10-11T04:58:00.987Z,15.23
2022-10-11T05:00:39.739Z,10.63
2022-10-11T05:03:17.874Z,15.57
2022-10-11T05:05:56.049Z,8.63
2022-10-11T05:08:36.773Z,8.73
2022-10-11T05:11:16.837Z,12.88
2022-10-11T05:13:57.928Z,12.13
2022-10-11T05:16:36.208Z,14.82
2022-10-11T05:19:17.658Z,10.48
2022-10-11T05:21:56.047Z,13.27
2022-10-11T05:24:34.836Z,10.82
2022-10-11T05:27:14.959Z,10.18
2022-10-11T05:29:52.665Z,15.52
2022-10-11T05:32:29.528Z,11.48
2022-10-11T05:35:10.430Z,12.95
2022-10-11T05:37:48.960Z,11.02
2022-10-11T05:40:29.345Z,9.02
2022-10-11T05:43:05.942Z,10.80
2022-10-11T05:45:44.732Z,15.82
2022-10-11T05:48:24.242Z,15.10
2022-10-11T05:51:03.431Z,13.00
2022-10-11T05:53:44.381Z,16.13
2022-10-11T05:56:28.016Z,12.80
2022-10-11T05:59:06.296Z,8.25
2022-10-11T06:01:44.021Z,9.93
2022-10-11T06:04:20.781Z,12.25
2022-10-11T06:06:58.120Z,11.13
2022-10-11T06:09:35.756Z,11.18
2022-10-11T06:12:16.033Z,11.25
2022-10-11T06:14:55.600Z,10.20
2022-10-11T06:17:52.945Z,11.27
2022-10-11T06:20:50.524Z,10.65
2022-10-11T06:24:01.156Z,13.00
2022-10-11T06:26:57.247Z,9.02
2022-10-11T06:29:35.360Z,11.18
2022-10-11T06:32:30.944Z,12.20
2022-10-11T06:35:09.007Z,13.73
2022-10-11T06:38:10.379Z,11.98
2022-10-11T06:41:18.104Z,13.85
2022-10-11T06:44:14.927Z,13.82
2022-10-11T06:47:09.443Z,8.02
2022-10-11T06:50:05.644Z,13.40
2022-10-11T06:53:01.690Z,10.90
2022-10-11T06:56:06.168Z,9.55
2022-10-11T06:58:59.884Z,12.75
2022-10-11T07:02:36.868Z,13.93
2022-10-11T07:16:05.531Z,10.88
2022-10-11T07:19:02.067Z,13.38
2022-10-11T07:21:54.524Z,15.43
2022-10-11T07:24:31.773Z,13.57
2022-10-11T07:27:38.456Z,17.15
2022-10-11T07:30:35.830Z,13.00
2022-10-11T07:33:33.025Z,11.15
2022-10-11T07:36:28.106Z,12.93
2022-10-11T07:39:23.169Z,16.25
2022-10-11T07:42:22.537Z,13.45
2022-10-11T07:44:59.116Z,11.77
2022-10-11T07:47:37.958Z,16.40
2022-10-11T07:50:13.944Z,13.80
2022-10-11T07:53:08.349Z,14.02
2022-10-11T07:56:04.482Z,15.65
2022-10-11T07:59:00.366Z,10.60
2022-10-11T08:01:51.568Z,13.48
2022-10-11T08:04:56.215Z,13.93
2022-10-11T08:07:48.845Z,15.93
2022-10-11T08:10:43.341Z,10.88
2022-10-11T08:13:42.278Z,14.40
2022-10-11T08:16:19.061Z,13.00
2022-10-11T08:19:16.098Z,19.83
2022-10-11T08:22:07.794Z,18.20
2022-10-11T08:25:06.830Z,18.58
2022-10-11T08:28:18.046Z,15.02
2022-10-11T08:31:16.939Z,14.30
2022-10-11T08:33:53.476Z,12.93
2022-10-11T08:37:03.220Z,22.13
2022-10-11T08:39:42.330Z,19.85
2022-10-11T08:45:11.952Z,16.25
2022-10-11T08:49:37.424Z,14.57
2022-10-11T08:52:49.910Z,12.77
2022-10-11T08:55:49.263Z,16.92
2022-10-11T08:59:12.776Z,17.63
2022-10-11T09:03:03.106Z,15.73
2022-10-11T09:06:00.258Z,17.10
2022-10-11T09:09:08.110Z,15.98
2022-10-11T09:12:10.082Z,15.70
2022-10-11T09:15:16.075Z,18.92
2022-10-11T09:18:11.217Z,18.23
2022-10-11T09:21:00.605Z,19.15
2022-10-11T09:23:37.637Z,16.02
2022-10-11T09:26:15.146Z,15.85
2022-10-11T09:29:00.923Z,13.43
2022-10-11T09:31:30.543Z,13.65
2022-10-11T09:34:11.851Z,19.67
2022-10-11T09:36:57.844Z,17.58
2022-10-11T09:39:37.087Z,15.85
2022-10-11T09:42:08.177Z,13.27
2022-10-11T09:44:38.013Z,19.08
2022-10-11T09:47:10.660Z,12.88
2022-10-11T09:49:50.785Z,20.02
2022-10-11T09:52:22.671Z,13.70
2022-10-11T09:55:00.639Z,18.35
2022-10-11T09:57:35.056Z,11.77
2022-10-11T10:00:12.527Z,17.80
2022-10-11T10:02:49.432Z,18.33
2022-10-11T10:05:23.512Z,14.57
2022-10-11T10:08:24.004Z,16.45
2022-10-11T10:11:04.690Z,17.23
2022-10-11T10:13:46.680Z,17.75
2022-10-11T10:16:35.256Z,13.25
2022-10-11T10:19:22.028Z,13.77
2022-10-11T10:21:53.163Z,15.63
2022-10-11T10:24:38.973Z,14.70
2022-10-11T10:27:24.742Z,13.43
2022-10-11T10:30:02.227Z,14.40
2022-10-11T10:32:34.343Z,11.30
2022-10-11T10:35:32.185Z,10.82
2022-10-11T10:38:26.885Z,15.07
2022-10-11T10:40:58.271Z,11.57
2022-10-11T10:43:28.937Z,15.50
2022-10-11T10:45:59.978Z,16.42
2022-10-11T10:49:41.190Z,13.38
2022-10-11T10:52:10.578Z,18.90
2022-10-11T10:55:19.811Z,10.82
2022-10-11T10:58:25.258Z,14.50
2022-10-11T11:01:09.157Z,14.13
2022-10-11T11:03:52.495Z,9.63
2022-10-11T11:06:34.207Z,13.80
2022-10-11T11:09:31.378Z,18.60
2022-10-11T11:12:06.305Z,14.02
2022-10-11T11:14:59.597Z,11.73
2022-10-11T11:18:07.715Z,13.90
2022-10-11T11:21:00.772Z,11.90
2022-10-11T11:23:39.466Z,14.88
2022-10-11T11:26:16.235Z,15.40
2022-10-11T11:29:06.825Z,10.45
2022-10-11T11:31:38.828Z,8.15
2022-10-11T11:34:10.659Z,12.52
2022-10-11T11:36:49.820Z,13.68
2022-10-11T11:39:25.476Z,10.80
2022-10-11T11:42:07.705Z,14.98
2022-10-11T11:44:49.781Z,12.30
2022-10-11T11:47:22.191Z,12.98
2022-10-11T11:49:58.097Z,9.45
2022-10-11T11:52:35.956Z,11.23
2022-10-11T11:55:13.529Z,10.20
2022-10-11T11:57:53.020Z,13.93
2022-10-11T12:00:25.270Z,14.55
2022-10-11T12:03:03.723Z,10.57
2022-10-11T12:05:36.210Z,10.23
2022-10-11T12:08:23.078Z,10.98
2022-10-11T12:10:51.324Z,12.02
2022-10-11T12:13:34.849Z,9.90
2022-10-11T12:16:19.237Z,8.50
2022-10-11T12:18:56.594Z,11.55
2022-10-11T12:21:38.974Z,7.82
2022-10-11T12:24:10.095Z,12.05
2022-10-11T12:26:46.177Z,9.88
2022-10-11T12:29:18.292Z,11.23
2022-10-11T12:32:11.390Z,10.73
2022-10-11T12:34:44.723Z,11.75
2022-10-11T12:37:18.883Z,11.40
2022-10-11T12:39:58.945Z,10.63
2022-10-11T12:42:35.414Z,12.30
2022-10-11T12:45:12.934Z,8.32
2022-10-11T12:48:09.475Z,14.70
2022-10-11T12:50:37.796Z,9.25
2022-10-11T12:53:30.439Z,11.70
2022-10-11T12:56:13.305Z,9.15
2022-10-11T12:58:46.522Z,8.40
2022-10-11T13:01:19.203Z,12.65
2022-10-11T13:03:50.782Z,8.25
2022-10-11T13:06:20.821Z,10.30
2022-10-11T13:08:54.818Z,12.68
2022-10-11T13:11:32.189Z,10.90
2022-10-11T13:14:19.272Z,10.20
2022-10-11T13:17:02.863Z,11.13
2022-10-11T13:19:33.974Z,9.80
2022-10-11T13:22:06.402Z,9.88
2022-10-11T13:24:37.979Z,10.32
2022-10-11T13:27:10.237Z,8.85
2022-10-11T13:29:45.496Z,12.18
2022-10-11T13:32:22.041Z,10.25
2022-10-11T13:37:28.708Z,9.02
2022-10-11T13:39:57.561Z,11.32
2022-10-11T13:42:32.178Z,12.02
2022-10-11T13:45:01.199Z,7.20
2022-10-11T13:47:31.758Z,10.30
2022-10-11T13:50:24.099Z,6.70
2022-10-11T13:53:09.502Z,10.60
2022-10-11T13:58:16.237Z,8.63
2022-10-11T14:01:17.657Z,5.78
2022-10-11T14:04:12.687Z,8.30
2022-10-11T14:06:47.708Z,9.43
2022-10-11T14:09:22.129Z,9.65
2022-10-11T14:11:51.508Z,8.27
2022-10-11T14:14:34.803Z,8.18
2022-10-11T14:17:17.351Z,7.32
2022-10-11T14:19:48.400Z,10.65
2022-10-11T14:22:18.214Z,8.43
2022-10-11T14:24:49.298Z,9.15
2022-10-11T14:27:22.571Z,7.68
2022-10-11T14:30:19.837Z,8.40
2022-10-11T14:32:42.333Z,10.70
2022-10-11T14:37:46.821Z,8.25
2022-10-11T14:40:18.291Z,9.70
2022-10-11T14:42:46.318Z,10.48
2022-10-11T14:45:14.517Z,8.93
2022-10-11T14:47:43.255Z,7.68
2022-10-11T14:50:31.985Z,7.85
2022-10-11T14:53:01.535Z,9.55
2022-10-11T14:55:31.106Z,10.48
2022-10-11T14:57:59.091Z,11.75
2022-10-11T15:00:29.785Z,12.43
2022-10-11T15:03:00.224Z,7.35
2022-10-11T15:05:33.969Z,13.13
2022-10-11T15:08:04.880Z,9.23
2022-10-11T15:10:41.580Z,10.40
2022-10-11T15:13:09.986Z,9.93
2022-10-11T15:15:41.296Z,9.68
2022-10-11T15:18:21.219Z,7.85
2022-10-11T15:20:49.556Z,9.45
2022-10-11T15:23:17.569Z,9.63
2022-10-11T15:25:45.496Z,7.15
2022-10-11T15:28:31.374Z,8.63
2022-10-11T15:31:00.913Z,10.73
2022-10-11T15:33:29.837Z,9.43
2022-10-11T15:35:57.769Z,9.40
2022-10-11T15:38:25.870Z,11.40
2022-10-11T15:40:54.659Z,7.53
2022-10-11T15:43:25.001Z,7.13
2022-10-11T15:45:54.818Z,7.72
2022-10-11T15:48:26.960Z,8.68
2022-10-11T15:50:56.164Z,10.55
2022-10-11T15:53:28.586Z,9.73
2022-10-11T15:55:59.228Z,9.93
2022-10-11T15:58:38.589Z,7.00
2022-10-11T16:01:09.963Z,8.13
2022-10-11T16:03:38.003Z,6.28
2022-10-11T16:06:06.124Z,6.38
2022-10-11T16:08:35.140Z,9.20
2022-10-11T16:11:04.058Z,11.80
2022-10-11T16:13:32.694Z,7.32
2022-10-11T16:16:02.473Z,7.88
2022-10-11T16:18:35.383Z,7.90
2022-10-11T16:21:10.221Z,7.38
2022-10-11T16:23:39.185Z,10.45
2022-10-11T16:26:09.843Z,8.32
2022-10-11T16:28:38.973Z,6.55
2022-10-11T16:31:13.474Z,8.98
2022-10-11T16:33:47.882Z,9.25
2022-10-11T16:36:40.342Z,7.55
2022-10-11T16:39:18.310Z,10.30
2022-10-11T16:41:47.027Z,10.05
2022-10-11T16:44:17.849Z,7.65
2022-10-11T16:46:49.024Z,9.68
2022-10-11T16:49:18.938Z,5.50
2022-10-11T16:51:47.199Z,9.23
2022-10-11T16:54:20.019Z,7.65
2022-10-11T16:56:50.105Z,9.75
2022-10-11T16:59:20.636Z,7.82
2022-10-11T17:01:49.300Z,11.13
2022-10-11T17:04:17.393Z,12.18
2022-10-11T17:06:45.406Z,11.10
2022-10-11T17:09:14.630Z,13.07
2022-10-11T17:11:43.071Z,12.90
2022-10-11T17:14:13.328Z,11.80
2022-10-11T17:16:42.436Z,12.05
2022-10-11T17:19:17.699Z,12.13
2022-10-11T17:21:47.837Z,14.02
2022-10-11T17:24:15.822Z,16.95
2022-10-11T17:26:43.622Z,29.17
2022-10-11T17:29:16.386Z,21.73
2022-10-11T17:31:48.981Z,25.02
2022-10-11T17:34:18.019Z,31.38
2022-10-11T17:36:46.713Z,37.03
2022-10-11T17:39:17.629Z,41.70
2022-10-11T17:41:48.574Z,43.58
2022-10-11T17:44:18.496Z,38.40
2022-10-11T17:46:48.382Z,35.33
2022-10-11T17:49:16.543Z,23.17
2022-10-11T17:51:44.869Z,24.90
2022-10-11T17:54:13.458Z,25.52
2022-10-11T17:56:42.979Z,17.67
2022-10-11T17:59:16.791Z,16.80
2022-10-11T18:01:45.629Z,20.65
2022-10-11T18:04:16.496Z,18.23
2022-10-11T18:06:46.529Z,15.10
2022-10-11T18:09:17.145Z,16.50
2022-10-11T18:11:46.617Z,22.77
2022-10-11T18:14:15.391Z,18.15
2022-10-11T18:16:43.218Z,18.02
2022-10-11T18:19:12.855Z,16.90
2022-10-11T18:21:42.104Z,23.73
2022-10-11T18:24:16.379Z,17.98
2022-10-11T18:26:47.268Z,16.90
2022-10-11T18:29:15.665Z,18.00
2022-10-11T18:31:43.809Z,17.95
2022-10-11T18:34:15.951Z,19.50
2022-10-11T18:36:46.427Z,16.48
2022-10-11T18:39:19.585Z,18.25
2022-10-11T18:41:48.232Z,22.48
2022-10-11T18:44:16.390Z,20.88
2022-10-11T18:46:45.742Z,18.10
2022-10-11T18:49:15.119Z,16.83
2022-10-11T18:51:46.579Z,16.02
2022-10-11T18:54:18.555Z,16.55
2022-10-11T18:56:49.489Z,15.57
2022-10-11T18:59:20.424Z,22.55
2022-10-11T19:01:54.359Z,15.02
2022-10-11T19:04:23.373Z,18.30
2022-10-11T19:06:53.434Z,15.23
2022-10-11T19:09:26.427Z,16.60
2022-10-11T19:11:56.841Z,13.70
2022-10-11T19:14:28.344Z,19.10
2022-10-11T19:16:57.855Z,14.40
2022-10-11T19:19:32.890Z,17.90
2022-10-11T19:22:03.383Z,20.85
2022-10-11T19:24:34.248Z,17.98
2022-10-11T19:27:03.408Z,17.83
2022-10-11T19:29:32.405Z,20.63
2022-10-11T19:32:01.490Z,16.33
2022-10-11T19:34:31.725Z,17.20
2022-10-11T19:37:01.255Z,25.58
2022-10-11T19:39:30.204Z,25.27
2022-10-11T19:41:58.017Z,18.90
2022-10-11T19:44:26.499Z,24.77
2022-10-11T19:46:54.742Z,19.90
2022-10-11T19:49:25.315Z,18.23
2022-10-11T19:51:55.541Z,16.17
2022-10-11T19:54:24.254Z,15.23
2022-10-11T19:56:54.561Z,21.00
2022-10-11T19:59:22.612Z,15.27
2022-10-11T20:01:55.334Z,17.02
2022-10-11T20:04:50.592Z,16.35
2022-10-11T20:07:11.726Z,24.83
2022-10-11T20:09:39.675Z,21.52
2022-10-11T20:12:08.022Z,16.70
2022-10-11T20:14:36.792Z,15.55
2022-10-11T20:17:05.916Z,16.35
2022-10-11T20:19:36.334Z,19.75
2022-10-11T20:22:07.308Z,18.13
2022-10-11T20:24:35.060Z,23.80
2022-10-11T20:27:05.534Z,21.13
2022-10-11T20:29:34.192Z,18.98
2022-10-11T20:32:02.607Z,21.08
2022-10-11T20:34:31.426Z,20.48
2022-10-11T20:36:59.426Z,18.45
2022-10-11T20:39:27.893Z,18.65
2022-10-11T20:41:55.937Z,17.40
2022-10-11T20:44:23.848Z,22.25
2022-10-11T20:46:52.201Z,20.00
2022-10-11T20:49:20.750Z,18.58
2022-10-11T20:51:49.468Z,18.08
2022-10-11T20:54:17.420Z,22.30
2022-10-11T20:56:45.452Z,21.90
2022-10-11T20:59:13.703Z,16.85
2022-10-11T21:01:41.921Z,16.45
2022-10-11T21:04:17.753Z,18.92
2022-10-11T21:06:46.477Z,15.80
2022-10-11T21:09:16.652Z,15.27
2022-10-11T21:11:46.260Z,14.65
2022-10-11T21:14:15.502Z,17.25
2022-10-11T21:16:44.556Z,16.60
2022-10-11T21:19:15.267Z,20.23
2022-10-11T21:21:45.019Z,18.42
2022-10-11T21:24:14.547Z,22.63
2022-10-11T21:26:42.929Z,18.15
2022-10-11T21:29:10.663Z,16.27
2022-10-11T21:31:40.570Z,16.52
2022-10-11T21:34:08.791Z,18.77
2022-10-11T21:36:36.638Z,14.90
2022-10-11T21:39:05.063Z,16.77
2022-10-11T21:41:34.048Z,15.05
2022-10-11T21:44:02.681Z,19.83
2022-10-11T21:47:01.374Z,14.05
2022-10-11T21:49:20.035Z,13.93
2022-10-11T21:51:47.951Z,17.80
2022-10-11T21:54:15.847Z,17.05
2022-10-11T21:56:43.872Z,15.57
2022-10-11T21:59:12.745Z,13.82
2022-10-11T22:01:41.788Z,15.93
2022-10-11T22:04:10.925Z,15.25
2022-10-11T22:06:39.728Z,16.20
2022-10-11T22:09:08.680Z,14.77
2022-10-11T22:11:37.495Z,15.90
2022-10-11T22:14:08.228Z,15.15
2022-10-11T22:16:36.435Z,14.80
2022-10-11T22:19:04.828Z,14.77
2022-10-11T22:21:33.641Z,16.38
2022-10-11T22:24:02.986Z,18.25
2022-10-11T22:26:35.676Z,15.80
2022-10-11T22:29:03.571Z,14.38
2022-10-11T22:31:32.492Z,15.82
2022-10-11T22:34:01.987Z,16.00
2022-10-11T22:36:30.674Z,14.68
2022-10-11T22:38:59.043Z,16.25
2022-10-11T22:41:27.129Z,12.70
2022-10-11T22:43:54.851Z,16.13
2022-10-11T22:46:22.565Z,14.20
2022-10-11T22:48:50.619Z,16.60
2022-10-11T22:51:19.063Z,17.25
2022-10-11T22:53:46.857Z,14.90
2022-10-11T22:56:15.110Z,18.05
2022-10-11T22:58:42.890Z,15.65
2022-10-11T23:01:13.483Z,16.50
2022-10-11T23:03:50.889Z,15.77
2022-10-11T23:06:21.010Z,15.07
2022-10-11T23:08:49.193Z,13.73
2022-10-11T23:11:17.239Z,14.55
2022-10-11T23:13:45.434Z,13.00
2022-10-11T23:16:13.551Z,14.40
2022-10-11T23:18:41.621Z,15.32
2022-10-11T23:21:11.218Z,15.35
2022-10-11T23:23:39.900Z,17.75
2022-10-11T23:26:13.487Z,15.23
2022-10-11T23:28:43.297Z,16.23
2022-10-11T23:31:14.143Z,21.20
2022-10-11T23:33:43.529Z,14.10
2022-10-11T23:36:18.200Z,13.73
2022-10-11T23:38:50.860Z,18.67
2022-10-11T23:41:20.361Z,14.20
2022-10-11T23:43:48.583Z,16.23
2022-10-11T23:46:16.834Z,14.52
2022-10-11T23:48:44.914Z,15.98
2022-10-11T23:51:13.546Z,14.13
2022-10-11T23:53:42.423Z,15.10
2022-10-11T23:56:12.213Z,11.82
2022-10-11T23:58:41.126Z,14.07
